Time,TemperatureF,DewpointF,PressureIn,WindDirection,WindDirectionDegrees,WindSpeedMPH,WindSpeedGustMPH,Humidity,HourlyPrecipIn,Conditions,Clouds,dailyrainin,SolarRadiationWatts/m^2,SoftwareType,DateUTC
2013-07-12 00:00:00,60.0,57.0,-100.00,South,180,0.0,-999.0,89,-99.99,,,-99.99,0.000000,,2013-07-12 04:00:00,
2013-07-12 00:43:00,60.0,57.0,-100.00,South,180,0.0,-999.0,89,-99.99,,,-99.99,0.000000,,2013-07-12 04:43:00,
2013-07-12 00:53:00,60.0,57.0,-100.00,South,180,0.0,-999.0,89,-99.99,,,-99.99,0.000000,,2013-07-12 04:53:00,
2013-07-12 01:00:00,57.0,56.0,-100.00,SW,225,0.0,-999.0,95,-99.99,,,-99.99,0.000000,,2013-07-12 05:00:00,
2013-07-12 01:43:00,57.0,56.0,-100.00,SW,225,0.0,-999.0,95,-99.99,,,-99.99,0.000000,,2013-07-12 05:43:00,
2013-07-12 01:53:00,57.0,56.0,-100.00,SW,225,0.0,-999.0,95,-99.99,,,-99.99,0.000000,,2013-07-12 05:53:00,
2013-07-12 02:00:00,56.0,55.0,-100.00,South,180,0.0,-999.0,96,-99.99,,,-99.99,0.000000,,2013-07-12 06:00:00,
2013-07-12 02:42:00,56.0,55.0,-100.00,South,180,0.0,-999.0,96,-99.99,,,-99.99,0.000000,,2013-07-12 06:42:00,
2013-07-12 02:52:00,56.0,55.0,-100.00,South,180,0.0,-999.0,96,-99.99,,,-99.99,0.000000,,2013-07-12 06:52:00,
2013-07-12 03:00:00,54.0,53.0,-100.00,West,270,0.0,-999.0,97,-99.99,,,-99.99,0.000000,,2013-07-12 07:00:00,
2013-07-12 03:43:00,54.0,53.0,-100.00,West,270,0.0,-999.0,97,-99.99,,,-99.99,0.000000,,2013-07-12 07:43:00,
2013-07-12 03:52:00,54.0,53.0,-100.00,West,270,0.0,-999.0,97,-99.99,,,-99.99,0.000000,,2013-07-12 07:52:00,
2013-07-12 04:00:00,52.0,52.0,-100.00,SE,135,0.0,-999.0,97,-99.99,,,-99.99,0.000000,,2013-07-12 08:00:00,
2013-07-12 04:42:00,52.0,52.0,-100.00,SE,135,0.0,-999.0,97,-99.99,,,-99.99,0.000000,,2013-07-12 08:42:00,
2013-07-12 04:53:00,52.0,52.0,-100.00,SE,135,0.0,-999.0,97,-99.99,,,-99.99,0.000000,,2013-07-12 08:53:00,
2013-07-12 05:00:00,52.0,51.0,-100.00,SE,135,0.0,-999.0,97,-99.99,,,-99.99,0.000000,,2013-07-12 09:00:00,
2013-07-12 05:43:00,52.0,51.0,-100.00,SE,135,0.0,-999.0,97,-99.99,,,-99.99,0.000000,,2013-07-12 09:43:00,
2013-07-12 05:52:00,52.0,51.0,-100.00,SE,135,0.0,-999.0,97,-99.99,,,-99.99,0.000000,,2013-07-12 09:52:00,
2013-07-12 06:00:00,51.0,50.0,-100.00,SE,135,0.0,-999.0,97,-99.99,,,-99.99,0.000000,,2013-07-12 10:00:00,
2013-07-12 06:42:00,51.0,50.0,-100.00,SE,135,0.0,-999.0,97,-99.99,,,-99.99,0.000000,,2013-07-12 10:42:00,
2013-07-12 06:52:00,51.0,50.0,-100.00,SE,135,0.0,-999.0,97,-99.99,,,-99.99,0.000000,,2013-07-12 10:52:00,
2013-07-12 07:00:00,51.0,50.0,-100.00,SE,135,0.0,-999.0,97,-99.99,,,-99.99,19.719999,,2013-07-12 11:00:00,
2013-07-12 07:43:00,51.0,50.0,-100.00,SE,135,0.0,-999.0,97,-99.99,,,-99.99,19.719999,,2013-07-12 11:43:00,
2013-07-12 07:53:00,51.0,50.0,-100.00,SE,135,0.0,-999.0,97,-99.99,,,-99.99,19.719999,,2013-07-12 11:53:00,
2013-07-12 08:00:00,55.0,55.0,-100.00,SE,135,0.0,-999.0,97,-99.99,,,-99.99,131.080002,,2013-07-12 12:00:00,
2013-07-12 08:43:00,55.0,55.0,-100.00,SE,135,0.0,-999.0,97,-99.99,,,-99.99,131.080002,,2013-07-12 12:43:00,
2013-07-12 08:53:00,55.0,55.0,-100.00,SE,135,0.0,-999.0,97,-99.99,,,-99.99,131.080002,,2013-07-12 12:53:00,
2013-07-12 09:00:00,63.0,58.0,-100.00,SSW,202,3.0,-999.0,83,-99.99,,,-99.99,278.399994,,2013-07-12 13:00:00,
2013-07-12 09:43:00,63.0,58.0,-100.00,SSW,202,3.0,-999.0,83,-99.99,,,-99.99,278.399994,,2013-07-12 13:43:00,
2013-07-12 09:53:00,63.0,58.0,-100.00,SSW,202,3.0,-999.0,83,-99.99,,,-99.99,278.399994,,2013-07-12 13:53:00,
2013-07-12 10:00:00,69.0,59.0,-100.00,SSW,202,5.0,-999.0,71,-99.99,,,-99.99,439.640015,,2013-07-12 14:00:00,
2013-07-12 10:44:00,69.0,59.0,-100.00,SSW,202,5.0,-999.0,71,-99.99,,,-99.99,439.640015,,2013-07-12 14:44:00,
2013-07-12 10:53:00,69.0,59.0,-100.00,SSW,202,5.0,-999.0,71,-99.99,,,-99.99,439.640015,,2013-07-12 14:53:00,
2013-07-12 11:00:00,73.0,56.0,-100.00,SSW,202,4.0,-999.0,55,-99.99,,,-99.99,607.840027,,2013-07-12 15:00:00,
2013-07-12 11:43:00,73.0,56.0,-100.00,SSW,202,4.0,-999.0,55,-99.99,,,-99.99,607.840027,,2013-07-12 15:43:00,
2013-07-12 11:53:00,73.0,56.0,-100.00,SSW,202,4.0,-999.0,55,-99.99,,,-99.99,607.840027,,2013-07-12 15:53:00,
2013-07-12 12:00:00,74.0,58.0,-100.00,SSW,202,5.0,-999.0,57,-99.99,,,-99.99,598.559998,,2013-07-12 16:00:00,
2013-07-12 12:43:00,74.0,58.0,-100.00,SSW,202,5.0,-999.0,57,-99.99,,,-99.99,598.559998,,2013-07-12 16:43:00,
2013-07-12 12:58:00,74.0,58.0,-100.00,SSW,202,5.0,-999.0,57,-99.99,,,-99.99,598.559998,,2013-07-12 16:58:00,
2013-07-12 13:00:00,75.0,60.0,-100.00,SSE,157,7.0,-999.0,59,-99.99,,,-99.99,795.760010,,2013-07-12 17:00:00,
2013-07-12 13:40:00,75.0,60.0,-100.00,SSE,157,7.0,-999.0,59,-99.99,,,-99.99,795.760010,,2013-07-12 17:40:00,
2013-07-12 13:47:00,75.0,60.0,-100.00,SSE,157,7.0,-999.0,59,-99.99,,,-99.99,795.760010,,2013-07-12 17:47:00,
2013-07-12 13:56:00,75.0,60.0,-100.00,SSE,157,7.0,-999.0,59,-99.99,,,-99.99,795.760010,,2013-07-12 17:56:00,
2013-07-12 14:00:00,76.0,59.0,-100.00,South,180,8.0,-999.0,55,-99.99,,,-99.99,838.679993,,2013-07-12 18:00:00,
2013-07-12 14:57:00,76.0,59.0,-100.00,South,180,8.0,-999.0,55,-99.99,,,-99.99,838.679993,,2013-07-12 18:57:00,
2013-07-12 15:00:00,77.0,59.0,-100.00,South,180,8.0,-999.0,52,-99.99,,,-99.99,834.039978,,2013-07-12 19:00:00,
2013-07-12 15:47:00,77.0,59.0,-100.00,South,180,8.0,-999.0,52,-99.99,,,-99.99,834.039978,,2013-07-12 19:47:00,
2013-07-12 15:58:00,77.0,59.0,-100.00,South,180,8.0,-999.0,52,-99.99,,,-99.99,834.039978,,2013-07-12 19:58:00,
2013-07-12 16:00:00,78.0,57.0,-100.00,South,180,8.0,-999.0,49,-99.99,,,-99.99,789.960022,,2013-07-12 20:00:00,
2013-07-12 16:47:00,78.0,57.0,-100.00,South,180,8.0,-999.0,49,-99.99,,,-99.99,789.960022,,2013-07-12 20:47:00,
2013-07-12 16:55:00,78.0,57.0,-100.00,South,180,8.0,-999.0,49,-99.99,,,-99.99,789.960022,,2013-07-12 20:55:00,
2013-07-12 17:00:00,78.0,57.0,-100.00,South,180,9.0,-999.0,47,-99.99,,,-99.99,671.640015,,2013-07-12 21:00:00,
2013-07-12 17:59:00,78.0,57.0,-100.00,South,180,9.0,-999.0,47,-99.99,,,-99.99,671.640015,,2013-07-12 21:59:00,
2013-07-12 18:00:00,77.0,58.0,-100.00,South,180,9.0,-999.0,51,-99.99,,,-99.99,542.880005,,2013-07-12 22:00:00,
2013-07-12 18:47:00,77.0,58.0,-100.00,South,180,9.0,-999.0,51,-99.99,,,-99.99,542.880005,,2013-07-12 22:47:00,
2013-07-12 18:56:00,77.0,58.0,-100.00,South,180,9.0,-999.0,51,-99.99,,,-99.99,542.880005,,2013-07-12 22:56:00,
2013-07-12 19:37:00,76.0,58.0,-100.00,South,180,8.0,-999.0,53,-99.99,,,-99.99,387.440002,,2013-07-12 23:37:00,
2013-07-12 19:45:00,76.0,58.0,-100.00,South,180,8.0,-999.0,53,-99.99,,,-99.99,387.440002,,2013-07-12 23:45:00,
2013-07-12 19:58:00,76.0,58.0,-100.00,South,180,8.0,-999.0,53,-99.99,,,-99.99,387.440002,,2013-07-12 23:58:00,
2013-07-12 21:00:00,72.0,57.0,-100.00,SSE,157,3.0,-999.0,59,-99.99,,,-99.99,62.639999,,2013-07-13 01:00:00,
2013-07-12 21:49:00,72.0,57.0,-100.00,SSE,157,3.0,-999.0,59,-99.99,,,-99.99,62.639999,,2013-07-13 01:49:00,
2013-07-12 21:56:00,72.0,57.0,-100.00,SSE,157,3.0,-999.0,59,-99.99,,,-99.99,62.639999,,2013-07-13 01:56:00,
2013-07-12 22:00:00,68.0,57.0,-100.00,South,180,2.0,-999.0,66,-99.99,,,-99.99,9.280000,,2013-07-13 02:00:00,
2013-07-12 22:38:00,68.0,57.0,-100.00,South,180,2.0,-999.0,66,-99.99,,,-99.99,9.280000,,2013-07-13 02:38:00,
2013-07-12 22:48:00,68.0,57.0,-100.00,South,180,2.0,-999.0,66,-99.99,,,-99.99,9.280000,,2013-07-13 02:48:00,
2013-07-12 22:55:00,68.0,57.0,-100.00,South,180,2.0,-999.0,66,-99.99,,,-99.99,9.280000,,2013-07-13 02:55:00,
2013-07-12 23:00:00,64.0,57.0,-100.00,SSE,157,1.0,-999.0,76,-99.99,,,-99.99,0.000000,,2013-07-13 03:00:00,
2013-07-12 23:47:00,64.0,57.0,-100.00,SSE,157,1.0,-999.0,76,-99.99,,,-99.99,0.000000,,2013-07-13 03:47:00,
2013-07-12 23:57:00,64.0,57.0,-100.00,SSE,157,1.0,-999.0,76,-99.99,,,-99.99,0.000000,,2013-07-13 03:57:00,